createdAt,value
2023-01-17T00:02:10.433Z,93663.81
2023-01-17T00:04:56.264Z,93658.66
2023-01-17T00:07:43.253Z,93647.56
2023-01-17T00:10:13.268Z,93650.16
2023-01-17T00:12:40.413Z,93657.66
2023-01-17T00:15:08.057Z,93668.50
2023-01-17T00:17:35.077Z,93660.00
2023-01-17T00:20:20.516Z,93661.00
2023-01-17T00:23:06.281Z,93671.00
2023-01-17T00:25:56.472Z,93663.72
2023-01-17T00:28:24.717Z,93660.66
2023-01-17T00:30:51.779Z,93666.34
2023-01-17T00:33:19.826Z,93662.25
2023-01-17T00:35:47.018Z,93671.31
2023-01-17T00:38:19.726Z,93672.59
2023-01-17T00:40:47.474Z,93672.06
2023-01-17T00:43:36.720Z,93678.31
2023-01-17T00:46:22.983Z,93677.03
2023-01-17T00:49:09.056Z,93685.06
2023-01-17T00:51:55.782Z,93694.38
2023-01-17T00:54:41.800Z,93691.78
2023-01-17T00:57:27.473Z,93688.66
2023-01-17T01:00:13.137Z,93691.78
2023-01-17T01:02:59.198Z,93700.34
2023-01-17T01:05:45.075Z,93706.28
2023-01-17T01:08:49.751Z,93710.19
2023-01-17T01:11:38.291Z,93709.41
2023-01-17T01:14:25.723Z,93710.91
2023-01-17T01:17:11.382Z,93711.19
2023-01-17T01:19:57.018Z,93713.22
2023-01-17T01:22:42.637Z,93709.94
2023-01-17T01:25:28.423Z,93711.75
2023-01-17T01:28:25.755Z,93720.28
2023-01-17T01:31:11.618Z,93723.66
2023-01-17T01:33:38.795Z,93713.59
2023-01-17T01:36:09.067Z,93715.94
2023-01-17T01:38:36.300Z,93724.91
2023-01-17T01:41:03.307Z,93720.53
2023-01-17T01:43:46.944Z,93722.41
2023-01-17T01:46:22.363Z,93723.97
2023-01-17T01:48:49.625Z,93729.63
2023-01-17T01:51:22.107Z,93735.88
2023-01-17T01:53:52.800Z,93735.63
2023-01-17T01:56:23.556Z,93741.06
2023-01-17T01:58:52.604Z,93737.94
2023-01-17T02:01:20.438Z,93736.69
2023-01-17T02:03:48.291Z,93726.88
2023-01-17T02:06:15.321Z,93721.72
2023-01-17T02:08:42.879Z,93726.56
2023-01-17T02:11:10.025Z,93725.25
2023-01-17T02:13:37.220Z,93729.63
2023-01-17T02:16:38.896Z,93724.69
2023-01-17T02:19:47.658Z,93733.00
2023-01-17T02:22:26.163Z,93730.19
2023-01-17T02:24:53.177Z,93735.88
2023-01-17T02:27:27.617Z,93737.84
2023-01-17T02:30:39.660Z,93737.91
2023-01-17T02:33:06.726Z,93725.22
2023-01-17T02:35:49.282Z,93725.00
2023-01-17T02:38:42.954Z,93729.41
2023-01-17T02:41:30.043Z,93722.19
2023-01-17T02:43:57.298Z,93720.16
2023-01-17T02:46:24.817Z,93724.06
2023-01-17T02:48:52.187Z,93724.31
2023-01-17T02:51:57.699Z,93725.84
2023-01-17T02:54:33.759Z,93730.25
2023-01-17T02:57:12.638Z,93740.59
2023-01-17T02:59:58.451Z,93728.69
2023-01-17T03:02:36.015Z,93734.09
2023-01-17T03:05:12.737Z,93737.16
2023-01-17T03:07:42.060Z,93732.78
2023-01-17T03:10:11.781Z,93733.53
2023-01-17T03:12:40.037Z,93728.88
2023-01-17T03:15:11.006Z,93728.63
2023-01-17T03:17:44.338Z,93731.22
2023-01-17T03:20:11.680Z,93728.13
2023-01-17T03:22:39.217Z,93734.81
2023-01-17T03:25:07.267Z,93737.41
2023-01-17T03:27:34.417Z,93741.28
2023-01-17T03:30:02.075Z,93739.47
2023-01-17T03:32:29.217Z,93742.84
2023-01-17T03:34:56.344Z,93738.69
2023-01-17T03:37:23.303Z,93742.63
2023-01-17T03:39:50.441Z,93748.81
2023-01-17T03:42:17.636Z,93752.16
2023-01-17T03:44:44.641Z,93751.91
2023-01-17T03:47:12.446Z,93759.41
2023-01-17T03:49:40.260Z,93750.88
2023-01-17T03:52:08.040Z,93757.59
2023-01-17T03:54:35.098Z,93760.66
2023-01-17T03:57:02.200Z,93765.88
2023-01-17T03:59:29.186Z,93760.94
2023-01-17T04:01:56.267Z,93763.28
2023-01-17T04:04:23.318Z,93758.38
2023-01-17T04:06:50.404Z,93756.34
2023-01-17T04:09:17.585Z,93755.81
2023-01-17T04:11:44.707Z,93750.41
2023-01-17T04:14:11.724Z,93755.34
2023-01-17T04:16:38.993Z,93748.34
2023-01-17T04:19:06.004Z,93743.16
2023-01-17T04:21:33.096Z,93744.72
2023-01-17T04:24:00.158Z,93734.13
2023-01-17T04:26:27.226Z,93729.97
2023-01-17T04:28:54.260Z,93741.09
2023-01-17T04:31:21.326Z,93732.06
2023-01-17T04:33:48.489Z,93737.00
2023-01-17T04:36:15.440Z,93737.53
2023-01-17T04:38:42.603Z,93740.63
2023-01-17T04:41:09.899Z,93752.50
2023-01-17T04:43:36.899Z,93760.25
2023-01-17T04:46:06.069Z,93764.34
2023-01-17T04:48:33.500Z,93765.88
2023-01-17T04:51:01.550Z,93769.50
2023-01-17T04:53:29.037Z,93774.66
2023-01-17T04:55:56.196Z,93790.59
2023-01-17T04:58:23.478Z,93795.69
2023-01-17T05:00:51.942Z,93793.31
2023-01-17T05:03:20.597Z,93789.91
2023-01-17T05:05:48.459Z,93792.41
2023-01-17T05:08:15.882Z,93794.50
2023-01-17T05:10:45.679Z,93799.34
2023-01-17T05:13:12.850Z,93795.44
2023-01-17T05:15:40.230Z,93799.09
2023-01-17T05:18:09.097Z,93804.72
2023-01-17T05:20:37.054Z,93800.34
2023-01-17T05:23:04.337Z,93799.56
2023-01-17T05:25:33.092Z,93798.00
2023-01-17T05:28:00.898Z,93800.03
2023-01-17T05:30:29.976Z,93802.09
2023-01-17T05:32:58.621Z,93802.31
2023-01-17T05:35:28.774Z,93812.63
2023-01-17T05:37:56.418Z,93817.25
2023-01-17T05:40:26.262Z,93827.41
2023-01-17T05:42:55.858Z,93830.00
2023-01-17T05:45:27.872Z,93832.59
2023-01-17T05:47:56.582Z,93837.69
2023-01-17T05:50:35.393Z,93842.00
2023-01-17T05:53:05.692Z,93838.13
2023-01-17T05:55:33.585Z,93839.38
2023-01-17T05:58:01.359Z,93839.84
2023-01-17T06:00:28.984Z,93839.38
2023-01-17T06:02:59.816Z,93847.59
2023-01-17T06:05:29.215Z,93866.44
2023-01-17T06:07:56.899Z,93863.81
2023-01-17T06:10:24.701Z,93865.06
2023-01-17T06:13:01.734Z,93874.84
2023-01-17T06:15:30.094Z,93884.63
2023-01-17T06:17:57.413Z,93889.50
2023-01-17T06:20:25.013Z,93901.22
2023-01-17T06:22:52.338Z,93905.13
2023-01-17T06:25:19.693Z,93910.78
2023-01-17T06:27:47.175Z,93916.38
2023-01-17T06:30:14.658Z,93928.22
2023-01-17T06:32:41.858Z,93935.72
2023-01-17T06:35:09.505Z,93942.72
2023-01-17T06:37:36.700Z,93938.59
2023-01-17T06:40:04.254Z,93940.72
2023-01-17T06:42:31.534Z,93937.34
2023-01-17T06:44:58.695Z,93938.59
2023-01-17T06:47:25.900Z,93936.91
2023-01-17T06:49:53.414Z,93931.81
2023-01-17T06:52:20.614Z,93931.06
2023-01-17T06:54:47.812Z,93925.22
2023-01-17T06:57:15.053Z,93924.50
2023-01-17T06:59:42.253Z,93933.56
2023-01-17T07:02:11.254Z,93937.72
2023-01-17T07:04:38.693Z,93937.78
2023-01-17T07:07:06.055Z,93936.53
2023-01-17T07:09:33.293Z,93938.63
2023-01-17T07:12:02.322Z,93945.88
2023-01-17T07:14:30.059Z,93947.75
2023-01-17T07:16:57.613Z,93937.47
2023-01-17T07:19:25.257Z,93946.78
2023-01-17T07:21:56.141Z,93947.09
2023-01-17T07:24:23.373Z,93944.81
2023-01-17T07:26:53.453Z,93955.69
2023-01-17T07:29:20.707Z,93957.47
2023-01-17T07:31:49.298Z,93977.84
2023-01-17T07:34:16.698Z,93983.47
2023-01-17T07:36:43.940Z,93991.19
2023-01-17T07:39:11.965Z,93990.41
2023-01-17T07:41:41.584Z,93993.78
2023-01-17T07:44:12.459Z,93996.16
2023-01-17T07:46:40.150Z,94001.16
2023-01-17T07:49:07.340Z,93990.94
2023-01-17T07:51:35.462Z,94001.03
2023-01-17T07:54:02.656Z,94007.09
2023-01-17T07:56:29.876Z,94003.94
2023-01-17T07:58:57.052Z,93995.97
2023-01-17T08:01:24.478Z,94006.63
2023-01-17T08:03:55.204Z,93995.81
2023-01-17T08:06:25.583Z,94000.00
2023-01-17T08:08:56.701Z,93998.78
2023-01-17T08:11:23.987Z,93999.16
2023-01-17T08:13:57.653Z,93994.28
2023-01-17T08:16:28.968Z,94007.25
2023-01-17T08:18:57.008Z,94007.53
2023-01-17T08:21:24.815Z,94006.06
2023-01-17T08:23:52.776Z,93995.25
2023-01-17T08:26:22.634Z,93997.13
2023-01-17T08:29:03.260Z,94000.72
2023-01-17T08:31:33.464Z,94000.94
2023-01-17T08:34:00.918Z,94005.69
2023-01-17T08:36:28.988Z,94010.91
2023-01-17T08:38:56.292Z,94004.00
2023-01-17T08:41:24.692Z,94007.44
2023-01-17T08:43:52.307Z,94009.28
2023-01-17T08:46:20.091Z,94002.59
2023-01-17T08:48:47.307Z,94007.59
2023-01-17T08:51:14.653Z,94016.44
2023-01-17T08:53:42.364Z,94011.56
2023-01-17T08:56:09.857Z,94015.22
2023-01-17T08:58:37.144Z,94009.31
2023-01-17T09:01:06.162Z,94012.75
2023-01-17T09:03:34.781Z,94010.22
2023-01-17T09:06:13.854Z,94006.19
2023-01-17T09:08:41.898Z,94007.81
2023-01-17T09:11:12.152Z,94007.16
2023-01-17T09:13:40.179Z,94016.75
2023-01-17T09:16:08.226Z,94019.06
2023-01-17T09:18:36.781Z,94015.44
2023-01-17T09:21:15.504Z,94023.44
2023-01-17T09:23:43.338Z,94029.94
2023-01-17T09:26:29.026Z,94029.66
2023-01-17T09:28:56.693Z,94029.41
2023-01-17T09:31:24.742Z,94034.28
2023-01-17T09:33:53.590Z,94024.13
2023-01-17T09:36:22.421Z,94020.47
2023-01-17T09:38:50.173Z,94021.50
2023-01-17T09:41:22.453Z,94012.50
2023-01-17T09:44:15.023Z,93996.69
2023-01-17T09:46:47.700Z,93986.41
2023-01-17T09:49:38.223Z,93977.94
2023-01-17T09:52:08.518Z,93974.13
2023-01-17T09:54:40.334Z,93970.34
2023-01-17T09:57:32.095Z,93961.06
2023-01-17T10:00:25.375Z,93954.13
2023-01-17T10:03:06.434Z,93935.03
2023-01-17T10:06:07.854Z,93939.50
2023-01-17T10:08:43.974Z,93942.94
2023-01-17T10:11:57.721Z,93943.19
2023-01-17T10:14:51.974Z,93936.25
2023-01-17T10:17:45.413Z,93936.81
2023-01-17T10:20:36.893Z,93919.75
2023-01-17T10:23:42.453Z,93927.81
2023-01-17T10:26:20.973Z,93926.78
2023-01-17T10:28:51.667Z,93936.91
2023-01-17T10:31:27.974Z,93953.78
2023-01-17T10:33:57.462Z,93952.28
2023-01-17T10:36:31.938Z,93958.50
2023-01-17T10:39:14.216Z,93951.25
2023-01-17T10:41:45.469Z,93951.50
2023-01-17T10:44:19.497Z,93952.78
2023-01-17T10:47:07.213Z,93944.75
2023-01-17T10:49:34.494Z,93937.97
2023-01-17T10:52:06.871Z,93922.13
2023-01-17T10:54:53.694Z,93923.97
2023-01-17T10:57:23.783Z,93929.16
2023-01-17T10:59:52.500Z,93935.88
2023-01-17T11:02:26.512Z,93926.59
2023-01-17T11:04:56.173Z,93928.16
2023-01-17T11:07:27.016Z,93926.59
2023-01-17T11:09:56.933Z,93934.63
2023-01-17T11:12:42.093Z,93910.53
2023-01-17T11:15:09.314Z,93907.16
2023-01-17T11:17:38.933Z,93903.00
2023-01-17T11:20:15.672Z,93897.56
2023-01-17T11:22:49.383Z,93891.06
2023-01-17T11:25:25.462Z,93883.56
2023-01-17T11:28:06.622Z,93883.56
2023-01-17T11:30:34.315Z,93877.59
2023-01-17T11:33:21.414Z,93870.09
2023-01-17T11:35:48.613Z,93855.81
2023-01-17T11:38:20.780Z,93858.16
2023-01-17T11:40:54.253Z,93856.34
2023-01-17T11:43:26.629Z,93850.91
2023-01-17T11:46:18.438Z,93831.97
2023-01-17T11:48:54.990Z,93833.25
2023-01-17T11:51:33.535Z,93825.47
2023-01-17T11:54:40.468Z,93810.97
2023-01-17T11:57:20.811Z,93809.16
2023-01-17T11:59:48.864Z,93814.06
2023-01-17T12:14:01.970Z,93811.09
2023-01-17T12:16:53.699Z,93801.22
2023-01-17T12:19:43.893Z,93804.59
2023-01-17T12:22:29.934Z,93793.22
2023-01-17T12:25:21.935Z,93799.47
2023-01-17T12:27:52.491Z,93800.78
2023-01-17T12:30:32.253Z,93801.81
2023-01-17T12:33:12.412Z,93810.38
2023-01-17T12:36:09.174Z,93813.75
2023-01-17T12:38:39.318Z,93812.97
2023-01-17T12:41:21.742Z,93815.84
2023-01-17T12:43:52.893Z,93813.75
2023-01-17T12:46:43.592Z,93813.50
2023-01-17T12:49:16.855Z,93812.22
2023-01-17T12:51:47.507Z,93797.47
2023-01-17T12:54:35.535Z,93774.16
2023-01-17T12:57:14.008Z,93774.66
2023-01-17T12:59:47.187Z,93780.88
2023-01-17T13:02:31.661Z,93782.69
2023-01-17T13:05:23.936Z,93780.09
2023-01-17T13:08:03.141Z,93774.13
2023-01-17T13:10:36.620Z,93778.31
2023-01-17T13:13:20.493Z,93766.38
2023-01-17T13:15:49.834Z,93772.34
2023-01-17T13:18:26.211Z,93761.97
2023-01-17T13:21:08.532Z,93753.41
2023-01-17T13:23:35.813Z,93735.53
2023-01-17T13:26:07.700Z,93728.53
2023-01-17T13:28:55.076Z,93730.09
2023-01-17T13:31:22.430Z,93710.66
2023-01-17T13:34:01.760Z,93708.31
2023-01-17T13:36:48.374Z,93707.28
2023-01-17T13:39:40.100Z,93687.06
2023-01-17T13:42:39.503Z,93679.28
2023-01-17T13:45:19.780Z,93676.69
2023-01-17T13:47:47.332Z,93662.97
2023-01-17T13:50:39.061Z,93647.19
2023-01-17T13:53:27.813Z,93657.28
2023-01-17T13:56:27.214Z,93652.63
2023-01-17T13:59:03.100Z,93653.94
2023-01-17T14:01:34.998Z,93654.97
2023-01-17T14:04:04.899Z,93654.97
2023-01-17T14:06:47.054Z,93651.06
2023-01-17T14:09:19.972Z,93638.88
2023-01-17T14:11:53.735Z,93628.53
2023-01-17T14:14:42.224Z,93619.97
2023-01-17T14:17:28.333Z,93621.25
2023-01-17T14:20:12.736Z,93611.41
2023-01-17T14:22:47.734Z,93595.09
2023-01-17T14:25:17.981Z,93584.47
2023-01-17T14:27:49.784Z,93572.56
2023-01-17T14:30:27.706Z,93562.72
2023-01-17T14:33:05.054Z,93550.03
2023-01-17T14:35:56.936Z,93550.53
2023-01-17T14:38:26.753Z,93563.75
2023-01-17T14:40:58.174Z,93562.72
2023-01-17T14:43:28.508Z,93567.91
2023-01-17T14:46:28.933Z,93574.13
2023-01-17T14:49:15.694Z,93570.50
2023-01-17T14:51:42.976Z,93562.75
2023-01-17T14:54:21.814Z,93566.38
2023-01-17T14:56:49.013Z,93558.34
2023-01-17T14:59:21.454Z,93549.00
2023-01-17T15:02:08.220Z,93550.81
2023-01-17T15:04:39.955Z,93548.50
2023-01-17T15:07:12.712Z,93551.09
2023-01-17T15:09:44.335Z,93539.97
2023-01-17T15:12:14.750Z,93555.50
2023-01-17T15:14:45.621Z,93557.31
2023-01-17T15:17:21.613Z,93563.81
2023-01-17T15:19:54.181Z,93566.13
2023-01-17T15:22:21.980Z,93565.38
2023-01-17T15:24:50.269Z,93572.13
2023-01-17T15:27:18.136Z,93574.22
2023-01-17T15:29:47.018Z,93585.34
2023-01-17T15:32:21.174Z,93582.22
2023-01-17T15:34:50.986Z,93578.84
2023-01-17T15:37:36.935Z,93567.47
2023-01-17T15:40:18.294Z,93562.03
2023-01-17T15:42:49.180Z,93554.78
2023-01-17T15:45:27.422Z,93570.31
2023-01-17T15:47:55.133Z,93579.91
2023-01-17T15:50:28.216Z,93583.81
2023-01-17T15:53:13.575Z,93583.28
2023-01-17T15:55:40.974Z,93578.34
2023-01-17T15:58:29.133Z,93578.91
2023-01-17T16:00:56.792Z,93580.69
2023-01-17T16:03:30.731Z,93581.47
2023-01-17T16:06:03.383Z,93575.25
2023-01-17T16:08:33.882Z,93568.03
2023-01-17T16:11:03.466Z,93560.78
2023-01-17T16:13:32.660Z,93563.38
2023-01-17T16:16:12.988Z,93576.06
2023-01-17T16:18:41.062Z,93575.00
2023-01-17T16:21:20.501Z,93578.13
2023-01-17T16:23:48.614Z,93571.91
2023-01-17T16:26:16.335Z,93579.69
2023-01-17T16:28:43.704Z,93580.97
2023-01-17T16:31:10.917Z,93576.28
2023-01-17T16:33:38.295Z,93573.72
2023-01-17T16:36:06.059Z,93575.53
2023-01-17T16:38:33.294Z,93583.56
2023-01-17T16:41:04.814Z,93574.50
2023-01-17T16:43:32.137Z,93567.78
2023-01-17T16:45:59.554Z,93574.78
2023-01-17T16:48:26.815Z,93568.28
2023-01-17T16:50:54.141Z,93579.66
2023-01-17T16:53:25.200Z,93589.50
2023-01-17T16:55:58.853Z,93582.00
2023-01-17T16:58:26.637Z,93578.38
2023-01-17T17:00:55.628Z,93575.53
2023-01-17T17:03:23.216Z,93575.78
2023-01-17T17:05:58.460Z,93576.56
2023-01-17T17:08:25.888Z,93574.00
2023-01-17T17:10:53.295Z,93564.69
2023-01-17T17:13:20.740Z,93570.88
2023-01-17T17:15:48.033Z,93566.97
2023-01-17T17:18:17.453Z,93550.19
2023-01-17T17:20:45.510Z,93540.38
2023-01-17T17:23:12.915Z,93521.97
2023-01-17T17:25:40.253Z,93514.47
2023-01-17T17:28:07.502Z,93511.41
2023-01-17T17:30:36.383Z,93511.13
2023-01-17T17:33:06.421Z,93515.28
2023-01-17T17:35:36.773Z,93512.66
2023-01-17T17:38:06.897Z,93510.09
2023-01-17T17:40:37.174Z,93508.53
2023-01-17T17:43:04.452Z,93516.28
2023-01-17T17:45:31.660Z,93521.47
2023-01-17T17:47:58.975Z,93527.66
2023-01-17T17:50:26.260Z,93531.53
2023-01-17T17:52:53.655Z,93536.44
2023-01-17T17:55:20.856Z,93530.50
2023-01-17T17:57:48.157Z,93523.00
2023-01-17T18:00:15.670Z,93527.63
2023-01-17T18:02:42.854Z,93519.88
2023-01-17T18:05:10.432Z,93515.25
2023-01-17T18:07:37.700Z,93509.53
2023-01-17T18:10:05.555Z,93504.91
2023-01-17T18:12:32.738Z,93509.28
2023-01-17T18:14:59.896Z,93505.16
2023-01-17T18:17:27.255Z,93504.13
2023-01-17T18:19:54.416Z,93496.13
2023-01-17T18:22:21.754Z,93494.03
2023-01-17T18:24:48.975Z,93488.59
2023-01-17T18:27:16.222Z,93488.88
2023-01-17T18:29:43.454Z,93498.44
2023-01-17T18:32:10.621Z,93498.44
2023-01-17T18:34:41.781Z,93502.31
2023-01-17T18:37:09.131Z,93487.56
2023-01-17T18:39:36.492Z,93494.28
2023-01-17T18:42:03.775Z,93487.03
2023-01-17T18:44:31.134Z,93472.84
2023-01-17T18:47:02.228Z,93478.00
2023-01-17T18:49:29.619Z,93473.38
2023-01-17T18:51:56.899Z,93478.00
2023-01-17T18:54:24.143Z,93473.38
2023-01-17T18:56:51.493Z,93467.41
2023-01-17T18:59:18.952Z,93475.69
2023-01-17T19:01:46.789Z,93485.25
2023-01-17T19:04:15.349Z,93478.78
2023-01-17T19:06:44.909Z,93486.53
2023-01-17T19:09:14.335Z,93488.34
2023-01-17T19:11:43.334Z,93491.47
2023-01-17T19:14:11.375Z,93486.53
2023-01-17T19:16:40.583Z,93477.72
2023-01-17T19:19:11.413Z,93467.94
2023-01-17T19:21:39.294Z,93461.97
2023-01-17T19:24:07.015Z,93458.88
2023-01-17T19:26:34.584Z,93458.13
2023-01-17T19:29:04.039Z,93456.31
2023-01-17T19:31:33.109Z,93462.50
2023-01-17T19:34:00.461Z,93453.19
2023-01-17T19:36:33.987Z,93445.69
2023-01-17T19:39:06.276Z,93442.06
2023-01-17T19:41:36.315Z,93446.75
2023-01-17T19:44:07.143Z,93448.56
2023-01-17T19:46:35.719Z,93439.78
2023-01-17T19:49:04.744Z,93443.63
2023-01-17T19:51:31.938Z,93440.03
2023-01-17T19:54:01.620Z,93443.88
2023-01-17T19:56:29.544Z,93434.59
2023-01-17T19:59:01.618Z,93433.81
2023-01-17T20:01:32.470Z,93431.47
2023-01-17T20:04:01.307Z,93425.28
2023-01-17T20:06:32.417Z,93424.00
2023-01-17T20:08:59.976Z,93428.66
2023-01-17T20:11:28.464Z,93428.91
2023-01-17T20:13:57.585Z,93433.06
2023-01-17T20:16:26.500Z,93429.44
2023-01-17T20:18:53.823Z,93434.06
2023-01-17T20:21:26.515Z,93444.41
2023-01-17T20:23:54.934Z,93445.19
2023-01-17T20:26:31.338Z,93431.75
2023-01-17T20:28:58.578Z,93435.34
2023-01-17T20:31:26.134Z,93430.47
2023-01-17T20:33:55.740Z,93426.06
2023-01-17T20:36:29.296Z,93423.22
2023-01-17T20:38:57.537Z,93420.63
2023-01-17T20:41:25.721Z,93408.47
2023-01-17T20:43:54.320Z,93413.41
2023-01-17T20:46:25.053Z,93406.91
2023-01-17T20:48:58.175Z,93401.50
2023-01-17T20:51:27.777Z,93405.91
2023-01-17T20:54:01.413Z,93396.34
2023-01-17T20:56:34.766Z,93405.38
2023-01-17T20:59:07.894Z,93406.16
2023-01-17T21:01:36.475Z,93411.59
2023-01-17T21:04:05.057Z,93410.28
2023-01-17T21:06:32.254Z,93396.88
2023-01-17T21:09:00.333Z,93390.16
2023-01-17T21:11:30.921Z,93388.59
2023-01-17T21:13:58.215Z,93380.84
2023-01-17T21:16:28.288Z,93392.72
2023-01-17T21:18:55.859Z,93387.81
2023-01-17T21:21:26.148Z,93387.53
2023-01-17T21:23:56.173Z,93386.78
2023-01-17T21:26:26.056Z,93393.47
2023-01-17T21:28:54.260Z,93397.88
2023-01-17T21:31:26.100Z,93396.34
2023-01-17T21:34:02.215Z,93386.25
2023-01-17T21:36:33.455Z,93390.66
2023-01-17T21:39:04.980Z,93392.72
2023-01-17T21:41:38.534Z,93380.06
2023-01-17T21:44:27.370Z,93383.44
2023-01-17T21:46:56.514Z,93393.75
2023-01-17T21:49:24.220Z,93402.53
2023-01-17T21:51:54.591Z,93403.56
2023-01-17T21:54:43.373Z,93407.69
2023-01-17T21:57:30.217Z,93404.59
2023-01-17T21:59:57.506Z,93403.84
2023-01-17T22:02:24.879Z,93401.00
2023-01-17T22:04:52.296Z,93392.47
2023-01-17T22:07:19.500Z,93395.56
2023-01-17T22:09:46.773Z,93382.66
2023-01-17T22:12:14.056Z,93388.09
2023-01-17T22:14:41.255Z,93381.63
2023-01-17T22:17:09.015Z,93377.47
2023-01-17T22:19:36.182Z,93369.97
2023-01-17T22:22:04.356Z,93369.44
2023-01-17T22:24:31.334Z,93366.59
2023-01-17T22:26:58.532Z,93375.66
2023-01-17T22:29:25.773Z,93368.69
2023-01-17T22:31:53.016Z,93374.38
2023-01-17T22:34:20.292Z,93362.97
2023-01-17T22:36:47.499Z,93373.84
2023-01-17T22:39:14.813Z,93368.41
2023-01-17T22:41:42.060Z,93369.44
2023-01-17T22:44:09.338Z,93373.56
2023-01-17T22:46:40.723Z,93374.09
2023-01-17T22:49:08.738Z,93368.66
2023-01-17T22:51:36.186Z,93354.97
2023-01-17T22:54:03.419Z,93352.38
2023-01-17T22:56:33.054Z,93358.31
2023-01-17T22:59:01.353Z,93351.59
2023-01-17T23:01:32.854Z,93349.53
2023-01-17T23:04:02.858Z,93352.13
2023-01-17T23:06:38.576Z,93348.25
2023-01-17T23:09:11.865Z,93343.59
2023-01-17T23:11:47.512Z,93348.22
2023-01-17T23:14:30.632Z,93347.69
2023-01-17T23:17:17.662Z,93350.81
2023-01-17T23:19:51.367Z,93347.47
2023-01-17T23:22:20.951Z,93339.69
2023-01-17T23:25:12.132Z,93347.44
2023-01-17T23:28:03.493Z,93345.66
2023-01-17T23:30:37.616Z,93340.75
2023-01-17T23:33:11.138Z,93336.09
2023-01-17T23:35:42.057Z,93333.25
2023-01-17T23:38:26.255Z,93332.47
2023-01-17T23:41:17.905Z,93332.97
2023-01-17T23:43:45.101Z,93336.88
2023-01-17T23:46:13.266Z,93333.50
2023-01-17T23:48:40.373Z,93343.31
2023-01-17T23:51:08.508Z,93340.22
2023-01-17T23:53:38.132Z,93337.88
2023-01-17T23:56:14.821Z,93330.91
2023-01-17T23:58:42.093Z,93334.53
